TimeEST,TemperatureF,Dew PointF,Humidity,Sea Level PressureIn,VisibilityMPH,Wind Direction,Wind SpeedMPH,Gust SpeedMPH,PrecipitationIn,Events,Conditions,WindDirDegrees,DateUTC
12:15 AM,51.8,24.8,35,30.14,10.0,South,4.6,-,N/A,,Mostly Cloudy,170,2012-11-27 05:15:00
12:35 AM,51.8,24.8,35,30.14,10.0,South,3.5,-,N/A,,Mostly Cloudy,180,2012-11-27 05:35:00
12:55 AM,50.0,26.6,40,30.14,10.0,WSW,3.5,-,N/A,,Overcast,240,2012-11-27 05:55:00
1:15 AM,50.0,26.6,40,30.16,10.0,West,4.6,-,N/A,,Overcast,260,2012-11-27 06:15:00
1:35 AM,50.0,28.4,43,30.15,10.0,Calm,Calm,-,N/A,Rain,Light Rain,0,2012-11-27 06:35:00
1:55 AM,50.0,28.4,43,30.15,10.0,WNW,5.8,-,N/A,,Mostly Cloudy,290,2012-11-27 06:55:00
2:15 AM,48.2,30.2,50,30.15,10.0,NW,5.8,-,N/A,,Overcast,310,2012-11-27 07:15:00
2:55 AM,48.2,35.6,62,30.15,10.0,NW,3.5,-,N/A,Rain,Light Rain,310,2012-11-27 07:55:00
3:15 AM,46.4,39.2,76,30.15,10.0,Calm,Calm,-,0.01,Rain,Light Rain,0,2012-11-27 08:15:00
3:35 AM,44.6,39.2,81,30.14,10.0,North,4.6,-,0.01,Rain,Rain,350,2012-11-27 08:35:00
3:55 AM,44.6,39.2,81,30.13,10.0,NNW,4.6,-,N/A,Rain,Light Rain,330,2012-11-27 08:55:00
4:15 AM,44.6,39.2,81,30.13,10.0,Calm,Calm,-,N/A,,Overcast,0,2012-11-27 09:15:00
4:55 AM,44.6,39.2,81,30.12,10.0,Calm,Calm,-,N/A,,Overcast,0,2012-11-27 09:55:00
5:15 AM,44.6,39.2,81,30.12,10.0,Calm,Calm,-,N/A,,Overcast,0,2012-11-27 10:15:00
5:35 AM,44.6,39.2,81,30.13,10.0,Calm,Calm,-,N/A,,Mostly Cloudy,0,2012-11-27 10:35:00
5:55 AM,44.6,41.0,87,30.13,10.0,NNW,3.5,-,N/A,,Overcast,330,2012-11-27 10:55:00
6:15 AM,44.6,39.2,81,30.13,10.0,Calm,Calm,-,N/A,,Overcast,0,2012-11-27 11:15:00
6:35 AM,44.6,39.2,81,30.13,10.0,Calm,Calm,-,N/A,,Overcast,0,2012-11-27 11:35:00
6:55 AM,44.6,39.2,81,30.13,10.0,Calm,Calm,-,N/A,,Overcast,0,2012-11-27 11:55:00
7:15 AM,44.6,39.2,81,30.13,10.0,Calm,Calm,-,N/A,,Overcast,0,2012-11-27 12:15:00
7:35 AM,44.6,39.2,81,30.13,10.0,Calm,Calm,-,N/A,,Overcast,0,2012-11-27 12:35:00
7:55 AM,44.6,41.0,87,30.14,10.0,Calm,Calm,-,N/A,,Overcast,0,2012-11-27 12:55:00
8:15 AM,44.6,41.0,87,30.14,10.0,Calm,Calm,-,N/A,,Overcast,0,2012-11-27 13:15:00
8:35 AM,44.6,42.8,93,30.15,10.0,Calm,Calm,-,N/A,,Overcast,0,2012-11-27 13:35:00
8:55 AM,44.6,42.8,93,30.15,10.0,Calm,Calm,-,N/A,,Overcast,0,2012-11-27 13:55:00
9:15 AM,46.4,42.8,87,30.16,10.0,Calm,Calm,-,N/A,,Overcast,0,2012-11-27 14:15:00
9:35 AM,46.4,42.8,87,30.15,10.0,Calm,Calm,-,N/A,,Overcast,0,2012-11-27 14:35:00
9:55 AM,46.4,42.8,87,30.15,10.0,Calm,Calm,-,N/A,,Overcast,0,2012-11-27 14:55:00
10:35 AM,46.4,42.8,87,30.17,10.0,Calm,Calm,-,N/A,,Overcast,0,2012-11-27 15:35:00
10:55 AM,46.4,42.8,87,30.17,10.0,NW,4.6,-,N/A,,Overcast,310,2012-11-27 15:55:00
11:15 AM,46.4,44.6,93,30.16,10.0,NW,9.2,-,N/A,,Overcast,310,2012-11-27 16:15:00
11:35 AM,46.4,44.6,93,30.16,7.0,NW,9.2,-,N/A,,Overcast,310,2012-11-27 16:35:00
11:55 AM,46.4,44.6,93,30.15,5.0,NW,9.2,-,N/A,,Overcast,320,2012-11-27 16:55:00
12:15 PM,46.4,44.6,93,30.15,7.0,WNW,9.2,-,N/A,,Overcast,300,2012-11-27 17:15:00
12:35 PM,46.4,44.6,93,30.15,10.0,NW,6.9,-,N/A,,Overcast,320,2012-11-27 17:35:00
12:55 PM,46.4,44.6,93,30.15,10.0,NW,9.2,-,N/A,,Overcast,320,2012-11-27 17:55:00
1:15 PM,46.4,44.6,93,30.14,7.0,NNW,9.2,-,N/A,,Overcast,330,2012-11-27 18:15:00
1:35 PM,46.4,44.6,93,30.14,7.0,NNW,12.7,-,N/A,,Overcast,340,2012-11-27 18:35:00
1:55 PM,46.4,44.6,93,30.14,7.0,NNW,12.7,-,N/A,,Overcast,330,2012-11-27 18:55:00
2:15 PM,44.6,42.8,93,30.14,10.0,NNW,11.5,-,N/A,,Overcast,340,2012-11-27 19:15:00
2:35 PM,44.6,42.8,93,30.14,10.0,NNW,13.8,-,N/A,,Overcast,330,2012-11-27 19:35:00
2:55 PM,44.6,42.8,93,30.15,10.0,NNW,10.4,-,N/A,,Overcast,330,2012-11-27 19:55:00
3:15 PM,44.6,41.0,87,30.15,10.0,NW,10.4,-,N/A,,Mostly Cloudy,320,2012-11-27 20:15:00
3:35 PM,44.6,41.0,87,30.14,10.0,NNW,11.5,-,N/A,,Mostly Cloudy,330,2012-11-27 20:35:00
3:55 PM,44.6,39.2,81,30.14,10.0,NW,15.0,18.4,N/A,,Overcast,320,2012-11-27 20:55:00
4:15 PM,44.6,39.2,81,30.15,10.0,NNW,13.8,-,N/A,,Mostly Cloudy,330,2012-11-27 21:15:00
4:35 PM,44.6,39.2,81,30.15,10.0,NW,10.4,-,N/A,,Clear,320,2012-11-27 21:35:00
4:55 PM,42.8,39.2,87,30.16,10.0,NW,11.5,-,N/A,,Clear,320,2012-11-27 21:55:00
5:15 PM,42.8,39.2,87,30.16,10.0,NNW,6.9,-,N/A,,Scattered Clouds,330,2012-11-27 22:15:00
5:35 PM,42.8,39.2,87,30.16,10.0,NNW,11.5,-,N/A,,Scattered Clouds,340,2012-11-27 22:35:00
5:55 PM,42.8,39.2,87,30.18,10.0,NNW,11.5,-,N/A,,Overcast,340,2012-11-27 22:55:00
6:15 PM,42.8,39.2,87,30.18,10.0,NNW,8.1,-,N/A,,Overcast,340,2012-11-27 23:15:00
6:55 PM,41.0,37.4,87,30.19,10.0,NNW,11.5,16.1,N/A,,Overcast,340,2012-11-27 23:55:00
7:35 PM,41.0,37.4,87,30.19,10.0,NNW,5.8,-,N/A,,Overcast,340,2012-11-28 00:35:00
7:55 PM,41.0,37.4,87,30.20,10.0,NNW,6.9,-,N/A,,Overcast,340,2012-11-28 00:55:00
8:15 PM,41.0,35.6,81,30.21,10.0,NNW,8.1,-,N/A,,Overcast,330,2012-11-28 01:15:00
8:35 PM,39.2,35.6,87,30.21,10.0,NNW,8.1,-,N/A,,Mostly Cloudy,330,2012-11-28 01:35:00
8:55 PM,39.2,33.8,81,30.21,10.0,NW,8.1,-,N/A,,Scattered Clouds,320,2012-11-28 01:55:00
9:15 PM,39.2,33.8,81,30.21,10.0,NW,9.2,-,N/A,,Scattered Clouds,320,2012-11-28 02:15:00
9:35 PM,39.2,33.8,81,30.21,10.0,NW,6.9,-,N/A,,Scattered Clouds,310,2012-11-28 02:35:00
9:55 PM,39.2,33.8,81,30.21,10.0,NW,11.5,-,N/A,,Scattered Clouds,320,2012-11-28 02:55:00
10:15 PM,39.2,33.8,81,30.22,10.0,NNW,5.8,-,N/A,,Mostly Cloudy,330,2012-11-28 03:15:00
10:35 PM,39.2,33.8,81,30.22,10.0,NW,5.8,-,N/A,,Overcast,310,2012-11-28 03:35:00
10:55 PM,39.2,33.8,81,30.22,10.0,NW,5.8,-,N/A,,Overcast,320,2012-11-28 03:55:00
11:15 PM,39.2,33.8,81,30.22,10.0,NW,6.9,-,N/A,,Overcast,310,2012-11-28 04:15:00
11:35 PM,39.2,32.0,75,30.22,10.0,NW,8.1,-,N/A,,Overcast,320,2012-11-28 04:35:00
11:55 PM,39.2,32.0,75,30.22,10.0,NW,8.1,-,N/A,,Overcast,310,2012-11-28 04:55:00